createdAt,value
2022-08-25T00:00:22.257Z,61.80
2022-08-25T00:02:55.237Z,62.00
2022-08-25T00:05:32.259Z,62.00
2022-08-25T00:08:03.509Z,62.10
2022-08-25T00:10:35.855Z,62.10
2022-08-25T00:13:06.860Z,62.10
2022-08-25T00:15:36.295Z,62.30
2022-08-25T00:18:11.499Z,62.20
2022-08-25T00:20:49.329Z,62.30
2022-08-25T00:23:19.316Z,62.10
2022-08-25T00:25:50.906Z,62.10
2022-08-25T00:28:20.082Z,62.00
2022-08-25T00:30:49.665Z,61.90
2022-08-25T00:33:19.827Z,61.80
2022-08-25T00:35:48.832Z,61.80
2022-08-25T00:38:17.907Z,61.70
2022-08-25T00:41:05.642Z,61.90
2022-08-25T00:43:45.614Z,61.90
2022-08-25T00:46:18.094Z,61.90
2022-08-25T00:48:51.948Z,61.90
2022-08-25T00:51:33.621Z,62.10
2022-08-25T00:54:04.166Z,62.30
2022-08-25T00:56:34.627Z,62.20
2022-08-25T00:59:06.646Z,62.30
2022-08-25T01:01:36.115Z,62.60
2022-08-25T01:04:05.382Z,62.60
2022-08-25T01:06:38.370Z,62.60
2022-08-25T01:09:08.513Z,62.80
2022-08-25T01:11:38.579Z,62.90
2022-08-25T01:14:12.008Z,62.80
2022-08-25T01:16:41.642Z,63.00
2022-08-25T01:19:15.391Z,63.00
2022-08-25T01:21:49.086Z,63.10
2022-08-25T01:24:25.845Z,63.10
2022-08-25T01:26:55.434Z,63.30
2022-08-25T01:29:26.346Z,63.10
2022-08-25T01:31:58.420Z,63.10
2022-08-25T01:34:29.693Z,63.10
2022-08-25T01:37:01.428Z,63.10
2022-08-25T01:39:33.937Z,63.20
2022-08-25T01:42:19.182Z,63.30
2022-08-25T01:44:49.694Z,63.30
2022-08-25T01:47:18.814Z,63.30
2022-08-25T01:49:47.837Z,64.20
2022-08-25T01:52:22.129Z,63.50
2022-08-25T01:54:51.268Z,63.70
2022-08-25T01:57:20.327Z,63.60
2022-08-25T01:59:49.524Z,63.60
2022-08-25T02:02:18.715Z,63.60
2022-08-25T02:04:48.815Z,63.60
2022-08-25T02:07:21.375Z,63.60
2022-08-25T02:09:50.576Z,63.70
2022-08-25T02:12:20.162Z,63.70
2022-08-25T02:14:49.457Z,63.90
2022-08-25T02:17:18.510Z,63.80
2022-08-25T02:19:47.736Z,63.90
2022-08-25T02:22:17.358Z,63.90
2022-08-25T02:24:48.046Z,64.70
2022-08-25T02:27:17.498Z,64.20
2022-08-25T02:29:46.639Z,64.30
2022-08-25T02:32:15.618Z,64.40
2022-08-25T02:34:44.831Z,64.50
2022-08-25T02:37:14.165Z,64.50
2022-08-25T02:39:43.687Z,65.40
2022-08-25T02:42:14.600Z,64.60
2022-08-25T02:44:43.635Z,64.70
2022-08-25T02:47:12.518Z,64.50
2022-08-25T02:49:41.412Z,64.70
2022-08-25T02:52:11.058Z,64.60
2022-08-25T02:54:40.015Z,64.60
2022-08-25T02:57:10.548Z,64.60
2022-08-25T02:59:41.063Z,64.50
2022-08-25T03:02:09.935Z,64.60
2022-08-25T03:04:39.553Z,64.50
2022-08-25T03:07:08.690Z,64.60
2022-08-25T03:09:41.526Z,64.60
2022-08-25T03:12:10.991Z,64.50
2022-08-25T03:14:42.026Z,64.40
2022-08-25T03:17:12.232Z,64.60
2022-08-25T03:19:41.927Z,64.50
2022-08-25T03:22:10.857Z,64.50
2022-08-25T03:24:39.859Z,64.40
2022-08-25T03:27:07.776Z,64.40
2022-08-25T03:29:36.669Z,64.50
2022-08-25T03:32:07.616Z,64.70
2022-08-25T03:34:36.552Z,64.70
2022-08-25T03:37:08.478Z,64.90
2022-08-25T03:39:37.696Z,64.90
2022-08-25T03:42:08.273Z,65.00
2022-08-25T03:44:37.142Z,65.00
2022-08-25T03:47:07.935Z,65.00
2022-08-25T03:49:37.175Z,65.00
2022-08-25T03:52:06.573Z,65.00
2022-08-25T03:54:35.667Z,65.00
2022-08-25T03:57:06.407Z,65.30
2022-08-25T03:59:38.305Z,64.90
2022-08-25T04:02:09.685Z,64.90
2022-08-25T04:04:38.972Z,64.90
2022-08-25T04:07:08.027Z,64.80
2022-08-25T04:09:37.749Z,64.70
2022-08-25T04:12:07.125Z,64.70
2022-08-25T04:14:36.887Z,64.70
2022-08-25T04:17:06.258Z,64.70
2022-08-25T04:19:37.265Z,64.70
2022-08-25T04:22:06.380Z,64.70
2022-08-25T04:24:35.803Z,64.70
2022-08-25T04:27:05.501Z,64.80
2022-08-25T04:29:36.026Z,64.90
2022-08-25T04:32:05.393Z,65.10
2022-08-25T04:34:35.902Z,65.20
2022-08-25T04:37:06.577Z,65.20
2022-08-25T04:39:35.688Z,65.40
2022-08-25T04:42:05.847Z,65.40
2022-08-25T04:44:34.935Z,65.60
2022-08-25T04:47:04.291Z,65.60
2022-08-25T04:49:33.172Z,65.50
2022-08-25T04:52:03.663Z,65.30
2022-08-25T04:54:37.477Z,65.30
2022-08-25T04:57:06.859Z,65.20
2022-08-25T04:59:35.933Z,65.40
2022-08-25T05:02:06.711Z,65.40
2022-08-25T05:04:38.652Z,65.50
2022-08-25T05:07:09.394Z,65.50
2022-08-25T05:09:38.370Z,66.40
2022-08-25T05:12:07.808Z,65.70
2022-08-25T05:14:39.549Z,65.70
2022-08-25T05:17:08.379Z,65.80
2022-08-25T05:19:37.412Z,65.80
2022-08-25T05:22:06.762Z,65.80
2022-08-25T05:24:37.365Z,65.80
2022-08-25T05:27:06.743Z,65.80
2022-08-25T05:29:35.790Z,65.80
2022-08-25T05:32:05.338Z,65.80
2022-08-25T05:34:34.314Z,65.60
2022-08-25T05:37:04.520Z,65.50
2022-08-25T05:39:33.809Z,65.50
2022-08-25T05:42:04.453Z,65.50
2022-08-25T05:44:34.065Z,65.70
2022-08-25T05:47:03.069Z,65.90
2022-08-25T05:49:32.345Z,65.90
2022-08-25T05:52:01.324Z,65.90
2022-08-25T05:54:31.656Z,66.00
2022-08-25T05:57:01.214Z,66.00
2022-08-25T05:59:32.753Z,66.10
2022-08-25T06:02:20.485Z,66.00
2022-08-25T06:04:49.886Z,66.00
2022-08-25T06:07:18.994Z,66.00
2022-08-25T06:09:49.915Z,66.00
2022-08-25T06:12:21.271Z,66.10
2022-08-25T06:14:53.025Z,66.10
2022-08-25T06:17:24.191Z,66.10
2022-08-25T06:19:55.008Z,66.10
2022-08-25T06:22:25.444Z,66.30
2022-08-25T06:24:54.964Z,66.30
2022-08-25T06:27:26.435Z,66.60
2022-08-25T06:29:56.817Z,66.60
2022-08-25T06:32:32.145Z,66.20
2022-08-25T06:35:01.722Z,65.90
2022-08-25T06:37:30.957Z,65.80
2022-08-25T06:40:00.629Z,65.80
2022-08-25T06:42:30.058Z,65.60
2022-08-25T06:45:00.580Z,65.50
2022-08-25T06:47:30.098Z,65.40
2022-08-25T06:49:59.358Z,65.10
2022-08-25T06:52:29.442Z,65.10
2022-08-25T06:54:59.182Z,65.10
2022-08-25T06:57:28.573Z,65.10
2022-08-25T06:59:57.767Z,65.00
2022-08-25T07:02:29.163Z,65.00
2022-08-25T07:04:58.865Z,64.90
2022-08-25T07:07:27.921Z,65.00
2022-08-25T07:10:16.073Z,64.90
2022-08-25T07:12:49.410Z,65.20
2022-08-25T07:15:20.709Z,65.20
2022-08-25T07:17:51.668Z,65.10
2022-08-25T07:20:20.961Z,64.80
2022-08-25T07:22:50.840Z,64.70
2022-08-25T07:25:20.692Z,64.70
2022-08-25T07:27:49.749Z,64.30
2022-08-25T07:30:19.076Z,64.00
2022-08-25T07:32:54.942Z,63.80
2022-08-25T07:35:26.362Z,63.60
2022-08-25T07:37:57.901Z,63.50
2022-08-25T07:40:29.882Z,63.30
2022-08-25T07:43:01.579Z,63.10
2022-08-25T07:45:32.575Z,62.70
2022-08-25T07:48:06.427Z,62.70
2022-08-25T07:50:38.829Z,62.30
2022-08-25T07:53:08.230Z,62.30
2022-08-25T07:55:38.204Z,62.50
2022-08-25T07:58:09.129Z,62.30
2022-08-25T08:00:42.385Z,62.10
2022-08-25T08:03:29.450Z,62.00
2022-08-25T08:06:08.103Z,61.60
2022-08-25T08:08:38.734Z,62.30
2022-08-25T08:11:15.789Z,61.50
2022-08-25T08:13:46.589Z,61.40
2022-08-25T08:16:18.207Z,61.20
2022-08-25T08:18:49.255Z,60.90
2022-08-25T08:21:21.762Z,60.90
2022-08-25T08:23:56.649Z,60.50
2022-08-25T08:26:48.318Z,60.80
2022-08-25T08:29:20.138Z,60.80
2022-08-25T08:31:51.739Z,60.60
2022-08-25T08:34:24.980Z,60.50
2022-08-25T08:36:55.228Z,60.50
2022-08-25T08:39:25.156Z,60.40
2022-08-25T08:42:19.801Z,59.70
2022-08-25T08:45:09.476Z,59.30
2022-08-25T08:47:52.887Z,59.30
2022-08-25T08:50:33.135Z,58.80
2022-08-25T08:53:10.261Z,58.10
2022-08-25T08:55:42.694Z,58.00
2022-08-25T08:58:17.931Z,57.90
2022-08-25T09:00:52.351Z,57.40
2022-08-25T09:03:30.636Z,57.20
2022-08-25T09:06:04.809Z,57.10
2022-08-25T09:08:37.478Z,56.80
2022-08-25T09:11:16.339Z,56.50
2022-08-25T09:14:04.587Z,56.20
2022-08-25T09:16:57.907Z,56.20
2022-08-25T09:19:53.897Z,55.40
2022-08-25T09:22:36.919Z,56.10
2022-08-25T09:25:21.924Z,55.80
2022-08-25T09:28:08.135Z,55.90
2022-08-25T09:30:46.940Z,55.70
2022-08-25T09:33:21.043Z,55.60
2022-08-25T09:35:53.596Z,55.40
2022-08-25T09:38:26.137Z,55.50
2022-08-25T09:40:58.293Z,54.50
2022-08-25T09:43:35.076Z,54.80
2022-08-25T09:46:10.685Z,55.30
2022-08-25T09:48:48.419Z,54.60
2022-08-25T09:51:29.393Z,54.30
2022-08-25T09:54:21.019Z,54.10
2022-08-25T09:56:56.965Z,54.20
2022-08-25T09:59:34.095Z,54.30
2022-08-25T10:02:21.349Z,53.80
2022-08-25T10:04:51.081Z,54.10
2022-08-25T10:07:25.831Z,54.10
2022-08-25T10:09:59.844Z,53.90
2022-08-25T10:12:34.140Z,54.00
2022-08-25T10:15:29.466Z,53.50
2022-08-25T10:18:26.193Z,53.80
2022-08-25T10:21:07.614Z,53.30
2022-08-25T10:23:40.627Z,53.40
2022-08-25T10:26:21.322Z,53.00
2022-08-25T10:29:04.842Z,52.50
2022-08-25T10:31:37.935Z,52.30
2022-08-25T10:34:26.377Z,51.70
2022-08-25T10:37:06.381Z,51.50
2022-08-25T10:39:42.468Z,51.40
2022-08-25T10:42:33.231Z,51.80
2022-08-25T10:45:34.655Z,51.50
2022-08-25T10:48:24.326Z,50.50
2022-08-25T10:51:00.897Z,50.60
2022-08-25T10:53:41.486Z,51.10
2022-08-25T10:56:17.255Z,50.10
2022-08-25T10:59:20.933Z,50.40
2022-08-25T11:02:25.368Z,50.20
2022-08-25T11:05:01.647Z,50.30
2022-08-25T11:07:35.368Z,49.90
2022-08-25T11:10:11.730Z,50.00
2022-08-25T11:12:45.392Z,50.30
2022-08-25T11:15:23.122Z,49.90
2022-08-25T11:17:57.923Z,49.70
2022-08-25T11:20:33.581Z,49.80
2022-08-25T11:23:11.717Z,49.60
2022-08-25T11:25:46.178Z,49.40
2022-08-25T11:28:25.055Z,49.20
2022-08-25T11:30:58.666Z,49.30
2022-08-25T11:33:31.359Z,48.90
2022-08-25T11:36:04.436Z,49.00
2022-08-25T11:38:49.523Z,49.80
2022-08-25T11:41:33.100Z,49.20
2022-08-25T11:44:21.482Z,48.90
2022-08-25T11:47:21.448Z,49.00
2022-08-25T11:49:56.765Z,49.60
2022-08-25T11:52:49.840Z,49.20
2022-08-25T11:55:23.419Z,48.90
2022-08-25T11:57:55.304Z,48.90
2022-08-25T12:00:41.476Z,48.80
2022-08-25T12:04:03.227Z,49.20
2022-08-25T12:06:36.519Z,49.30
2022-08-25T12:09:21.710Z,47.80
2022-08-25T12:11:56.314Z,47.80
2022-08-25T12:14:44.018Z,47.20
2022-08-25T12:17:24.338Z,47.00
2022-08-25T12:19:59.377Z,47.10
2022-08-25T12:22:55.959Z,46.90
2022-08-25T12:25:49.835Z,47.80
2022-08-25T12:28:46.072Z,47.20
2022-08-25T12:31:33.215Z,46.70
2022-08-25T12:34:16.519Z,47.10
2022-08-25T12:36:59.292Z,47.10
2022-08-25T12:39:35.138Z,47.00
2022-08-25T12:42:08.689Z,47.20
2022-08-25T12:44:47.040Z,47.20
2022-08-25T12:47:34.732Z,47.80
2022-08-25T12:50:33.345Z,47.60
2022-08-25T12:53:15.299Z,47.10
2022-08-25T12:55:51.630Z,46.00
2022-08-25T12:58:20.671Z,46.20
2022-08-25T13:01:09.158Z,46.10
2022-08-25T13:03:58.527Z,45.60
2022-08-25T13:06:58.573Z,45.30
2022-08-25T13:10:22.122Z,46.10
2022-08-25T13:13:02.078Z,45.80
2022-08-25T13:15:39.712Z,45.60
2022-08-25T13:18:22.523Z,45.40
2022-08-25T13:20:56.067Z,45.40
2022-08-25T13:23:29.426Z,45.20
2022-08-25T13:25:59.835Z,45.60
2022-08-25T13:28:34.649Z,45.40
2022-08-25T13:31:08.630Z,45.70
2022-08-25T13:33:38.850Z,45.80
2022-08-25T13:36:35.223Z,46.10
2022-08-25T13:39:15.346Z,45.50
2022-08-25T13:41:55.354Z,44.80
2022-08-25T13:44:28.790Z,44.50
2022-08-25T13:47:08.915Z,45.30
2022-08-25T13:49:40.495Z,45.20
2022-08-25T13:52:20.144Z,45.00
2022-08-25T13:55:00.677Z,45.00
2022-08-25T13:57:34.808Z,44.80
2022-08-25T14:00:11.683Z,44.80
2022-08-25T14:02:44.672Z,44.80
2022-08-25T14:05:17.391Z,44.40
2022-08-25T14:08:09.061Z,44.30
2022-08-25T14:10:49.655Z,44.70
2022-08-25T14:13:32.898Z,44.70
2022-08-25T14:16:12.973Z,44.60
2022-08-25T14:18:49.342Z,44.70
2022-08-25T14:21:28.097Z,44.10
2022-08-25T14:23:58.091Z,44.10
2022-08-25T14:26:29.075Z,44.50
2022-08-25T14:28:59.699Z,44.20
2022-08-25T14:31:33.406Z,43.90
2022-08-25T14:34:08.869Z,44.30
2022-08-25T14:36:42.947Z,44.50
2022-08-25T14:39:15.488Z,44.20
2022-08-25T14:41:47.506Z,44.00
2022-08-25T14:44:22.903Z,43.00
2022-08-25T14:46:56.152Z,43.10
2022-08-25T14:49:33.979Z,43.10
2022-08-25T14:52:09.285Z,43.10
2022-08-25T14:54:38.498Z,43.30
2022-08-25T14:57:08.220Z,42.90
2022-08-25T14:59:43.132Z,42.60
2022-08-25T15:02:19.970Z,41.80
2022-08-25T15:04:54.449Z,42.60
2022-08-25T15:07:42.831Z,42.70
2022-08-25T15:10:13.512Z,42.50
2022-08-25T15:12:48.106Z,42.00
2022-08-25T15:15:20.777Z,42.50
2022-08-25T15:17:51.735Z,42.30
2022-08-25T15:20:21.247Z,42.40
2022-08-25T15:22:50.414Z,42.60
2022-08-25T15:25:20.974Z,42.50
2022-08-25T15:27:50.225Z,42.60
2022-08-25T15:30:30.756Z,42.90
2022-08-25T15:33:02.400Z,43.00
2022-08-25T15:35:31.599Z,43.10
2022-08-25T15:38:00.938Z,42.50
2022-08-25T15:40:30.532Z,42.60
2022-08-25T15:43:01.778Z,42.20
2022-08-25T15:45:33.335Z,42.00
2022-08-25T15:48:06.937Z,42.20
2022-08-25T15:50:38.828Z,42.10
2022-08-25T15:53:10.531Z,41.90
2022-08-25T15:55:41.307Z,42.20
2022-08-25T15:58:10.390Z,42.00
2022-08-25T16:00:39.983Z,42.10
2022-08-25T16:03:13.019Z,42.20
2022-08-25T16:05:47.890Z,42.30
2022-08-25T16:08:19.707Z,42.10
2022-08-25T16:10:49.708Z,42.30
2022-08-25T16:13:19.211Z,42.40
2022-08-25T16:15:54.064Z,42.50
2022-08-25T16:18:25.983Z,42.30
2022-08-25T16:20:56.825Z,42.40
2022-08-25T16:23:27.397Z,42.60
2022-08-25T16:25:57.030Z,42.40
2022-08-25T16:28:27.100Z,42.30
2022-08-25T16:30:56.572Z,42.30
2022-08-25T16:33:27.151Z,42.70
2022-08-25T16:36:06.835Z,43.10
2022-08-25T16:38:36.603Z,43.50
2022-08-25T16:41:08.897Z,43.70
2022-08-25T16:43:38.736Z,43.90
2022-08-25T16:46:12.468Z,43.90
2022-08-25T16:48:44.215Z,44.10
2022-08-25T16:51:15.120Z,44.20
2022-08-25T16:54:02.147Z,44.30
2022-08-25T16:56:31.575Z,44.20
2022-08-25T16:59:02.711Z,44.40
2022-08-25T17:01:35.467Z,44.40
2022-08-25T17:04:06.599Z,44.50
2022-08-25T17:06:38.183Z,44.80
2022-08-25T17:09:09.848Z,44.80
2022-08-25T17:11:45.354Z,44.90
2022-08-25T17:14:18.750Z,45.00
2022-08-25T17:16:51.086Z,45.10
2022-08-25T17:19:23.715Z,45.20
2022-08-25T17:21:54.815Z,45.40
2022-08-25T17:24:29.192Z,45.40
2022-08-25T17:27:01.568Z,45.70
2022-08-25T17:29:31.033Z,45.90
2022-08-25T17:32:00.238Z,46.00
2022-08-25T17:34:30.822Z,45.80
2022-08-25T17:37:02.242Z,46.20
2022-08-25T17:39:31.983Z,46.40
2022-08-25T17:42:01.485Z,46.40
2022-08-25T17:44:31.243Z,46.50
2022-08-25T17:47:00.830Z,46.40
2022-08-25T17:49:31.297Z,46.80
2022-08-25T17:52:00.227Z,46.90
2022-08-25T17:54:29.249Z,47.20
2022-08-25T17:56:58.478Z,47.40
2022-08-25T17:59:32.463Z,47.20
2022-08-25T18:02:02.076Z,47.40
2022-08-25T18:04:32.358Z,47.30
2022-08-25T18:07:01.228Z,47.50
2022-08-25T18:09:30.348Z,47.50
2022-08-25T18:12:00.080Z,47.50
2022-08-25T18:14:29.474Z,47.50
2022-08-25T18:17:00.109Z,47.70
2022-08-25T18:19:29.413Z,47.70
2022-08-25T18:22:04.189Z,48.10
2022-08-25T18:24:35.277Z,48.50
2022-08-25T18:27:04.908Z,48.30
2022-08-25T18:29:35.740Z,48.90
2022-08-25T18:32:05.610Z,48.90
2022-08-25T18:34:36.310Z,48.90
2022-08-25T18:37:21.003Z,49.10
2022-08-25T18:40:08.630Z,49.30
2022-08-25T18:42:38.211Z,49.10
2022-08-25T18:45:08.971Z,49.20
2022-08-25T18:47:41.913Z,49.30
2022-08-25T18:50:11.816Z,49.40
2022-08-25T18:52:43.634Z,49.60
2022-08-25T18:55:13.216Z,50.00
2022-08-25T18:57:43.780Z,50.00
2022-08-25T19:00:16.474Z,50.00
2022-08-25T19:02:47.274Z,50.30
2022-08-25T19:05:18.573Z,50.20
2022-08-25T19:07:50.388Z,50.30
2022-08-25T19:10:24.022Z,50.60
2022-08-25T19:12:55.539Z,50.80
2022-08-25T19:15:27.744Z,50.90
2022-08-25T19:17:58.680Z,50.80
2022-08-25T19:20:29.573Z,50.90
2022-08-25T19:22:59.883Z,51.00
2022-08-25T19:25:33.049Z,51.30
2022-08-25T19:28:02.716Z,51.30
2022-08-25T19:30:34.149Z,51.50
2022-08-25T19:33:03.748Z,51.60
2022-08-25T19:35:52.793Z,51.60
2022-08-25T19:38:35.357Z,51.80
2022-08-25T19:41:10.611Z,51.90
2022-08-25T19:43:50.535Z,52.00
2022-08-25T19:46:33.082Z,52.20
2022-08-25T19:49:09.383Z,52.30
2022-08-25T19:51:40.315Z,52.40
2022-08-25T19:54:12.057Z,52.40
2022-08-25T19:56:43.606Z,52.70
2022-08-25T19:59:24.673Z,52.70
2022-08-25T20:01:54.577Z,52.90
2022-08-25T20:04:24.166Z,52.90
2022-08-25T20:06:55.471Z,53.10
2022-08-25T20:09:39.597Z,53.50
2022-08-25T20:12:11.775Z,53.20
2022-08-25T20:14:41.441Z,53.10
2022-08-25T20:17:14.617Z,53.30
2022-08-25T20:19:55.491Z,53.50
2022-08-25T20:22:28.189Z,53.50
2022-08-25T20:25:01.130Z,53.60
2022-08-25T20:27:35.183Z,53.70
2022-08-25T20:30:07.776Z,53.60
2022-08-25T20:32:36.956Z,53.80
2022-08-25T20:35:09.301Z,53.90
2022-08-25T20:37:43.872Z,53.80
2022-08-25T20:40:16.419Z,53.60
2022-08-25T20:42:46.683Z,53.80
2022-08-25T20:45:18.238Z,53.90
2022-08-25T20:47:47.229Z,54.20
2022-08-25T20:50:16.869Z,54.20
2022-08-25T20:52:46.272Z,54.40
2022-08-25T20:55:19.502Z,54.60
2022-08-25T20:57:49.317Z,54.70
2022-08-25T21:00:23.594Z,54.90
2022-08-25T21:02:55.018Z,54.90
2022-08-25T21:05:25.000Z,55.00
2022-08-25T21:07:54.402Z,55.10
2022-08-25T21:10:25.454Z,55.20
2022-08-25T21:12:54.705Z,55.20
2022-08-25T21:15:24.111Z,55.20
2022-08-25T21:17:54.670Z,55.20
2022-08-25T21:20:25.039Z,55.20
2022-08-25T21:22:55.348Z,55.20
2022-08-25T21:25:27.674Z,55.30
2022-08-25T21:27:56.859Z,55.40
2022-08-25T21:30:26.528Z,55.40
2022-08-25T21:32:57.576Z,55.40
2022-08-25T21:35:27.591Z,55.50
2022-08-25T21:37:58.327Z,55.70
2022-08-25T21:40:28.909Z,55.70
2022-08-25T21:42:58.235Z,55.80
2022-08-25T21:45:27.778Z,55.70
2022-08-25T21:48:05.789Z,55.90
2022-08-25T21:50:35.018Z,55.90
2022-08-25T21:53:04.195Z,56.10
2022-08-25T21:55:39.292Z,56.10
2022-08-25T21:58:11.857Z,56.20
2022-08-25T22:00:41.098Z,56.20
2022-08-25T22:03:10.302Z,56.40
2022-08-25T22:05:40.566Z,56.50
2022-08-25T22:08:10.340Z,56.50
2022-08-25T22:10:45.534Z,56.50
2022-08-25T22:13:14.742Z,56.70
2022-08-25T22:15:44.356Z,56.90
2022-08-25T22:18:13.575Z,56.70
2022-08-25T22:20:42.891Z,56.80
2022-08-25T22:23:20.190Z,56.80
2022-08-25T22:25:51.576Z,56.90
2022-08-25T22:28:20.706Z,57.00
2022-08-25T22:30:51.828Z,57.00
2022-08-25T22:33:21.183Z,57.00
2022-08-25T22:35:54.260Z,57.10
2022-08-25T22:38:29.195Z,57.30
2022-08-25T22:41:03.863Z,57.50
2022-08-25T22:43:33.288Z,57.50
2022-08-25T22:46:03.684Z,57.30
2022-08-25T22:48:33.604Z,57.60
2022-08-25T22:51:06.256Z,57.60
2022-08-25T22:53:37.239Z,57.50
2022-08-25T22:56:08.901Z,57.50
2022-08-25T22:58:39.866Z,58.00
2022-08-25T23:01:14.368Z,57.50
2022-08-25T23:03:46.056Z,57.50
2022-08-25T23:06:24.481Z,57.60
2022-08-25T23:08:55.468Z,57.70
2022-08-25T23:11:27.077Z,57.80
2022-08-25T23:14:02.163Z,57.90
2022-08-25T23:16:32.553Z,58.00
2022-08-25T23:19:02.578Z,58.10
2022-08-25T23:21:49.255Z,58.10
2022-08-25T23:24:27.098Z,58.20
2022-08-25T23:27:02.277Z,58.40
2022-08-25T23:29:34.118Z,58.50
2022-08-25T23:32:07.178Z,59.10
2022-08-25T23:34:37.364Z,58.60
2022-08-25T23:37:09.080Z,58.60
2022-08-25T23:39:40.870Z,58.70
2022-08-25T23:42:11.393Z,58.90
2022-08-25T23:44:41.190Z,58.90
2022-08-25T23:47:12.053Z,59.00
2022-08-25T23:49:41.416Z,59.00
2022-08-25T23:52:10.579Z,59.00
2022-08-25T23:54:40.406Z,59.10
2022-08-25T23:57:11.174Z,59.20
2022-08-25T23:59:40.812Z,59.20
